sensor_id;sensor_type;location;lat;lon;timestamp;P1;durP1;ratioP1;P2;durP2;ratioP2
36253;SDS011;22291;52.250;21.228;2023-11-19T00:01:33;89.60;;;45.70;;
36253;SDS011;22291;52.250;21.228;2023-11-19T00:03:59;90.87;;;43.00;;
36253;SDS011;22291;52.250;21.228;2023-11-19T00:06:26;78.10;;;37.45;;
36253;SDS011;22291;52.250;21.228;2023-11-19T00:08:53;70.62;;;37.15;;
36253;SDS011;22291;52.250;21.228;2023-11-19T00:11:21;67.80;;;33.38;;
36253;SDS011;22291;52.250;21.228;2023-11-19T00:13:48;67.90;;;33.55;;
36253;SDS011;22291;52.250;21.228;2023-11-19T00:16:14;66.00;;;32.30;;
36253;SDS011;22291;52.250;21.228;2023-11-19T00:18:42;67.58;;;33.25;;
36253;SDS011;22291;52.250;21.228;2023-11-19T00:21:08;65.32;;;33.28;;
36253;SDS011;22291;52.250;21.228;2023-11-19T00:23:36;61.08;;;32.73;;
36253;SDS011;22291;52.250;21.228;2023-11-19T00:26:03;70.65;;;33.50;;
36253;SDS011;22291;52.250;21.228;2023-11-19T00:28:32;68.37;;;33.53;;
36253;SDS011;22291;52.250;21.228;2023-11-19T00:30:59;73.97;;;34.53;;
36253;SDS011;22291;52.250;21.228;2023-11-19T00:33:26;61.70;;;33.33;;
36253;SDS011;22291;52.250;21.228;2023-11-19T00:35:52;66.40;;;32.28;;
36253;SDS011;22291;52.250;21.228;2023-11-19T00:38:19;60.78;;;32.10;;
36253;SDS011;22291;52.250;21.228;2023-11-19T00:40:46;65.60;;;32.03;;
36253;SDS011;22291;52.250;21.228;2023-11-19T00:43:12;63.05;;;32.83;;
36253;SDS011;22291;52.250;21.228;2023-11-19T00:45:40;63.25;;;31.85;;
36253;SDS011;22291;52.250;21.228;2023-11-19T00:48:07;65.83;;;31.95;;
36253;SDS011;22291;52.250;21.228;2023-11-19T00:50:34;61.73;;;31.77;;
36253;SDS011;22291;52.250;21.228;2023-11-19T00:53:02;64.60;;;31.07;;
36253;SDS011;22291;52.250;21.228;2023-11-19T00:55:29;63.60;;;33.73;;
36253;SDS011;22291;52.250;21.228;2023-11-19T00:57:56;63.38;;;31.48;;
36253;SDS011;22291;52.250;21.228;2023-11-19T01:00:23;63.55;;;32.38;;
36253;SDS011;22291;52.250;21.228;2023-11-19T01:02:52;65.62;;;31.25;;
36253;SDS011;22291;52.250;21.228;2023-11-19T01:05:19;65.00;;;30.88;;
36253;SDS011;22291;52.250;21.228;2023-11-19T01:07:48;66.55;;;30.77;;
36253;SDS011;22291;52.250;21.228;2023-11-19T01:10:15;62.55;;;32.20;;
36253;SDS011;22291;52.250;21.228;2023-11-19T01:12:42;66.35;;;31.73;;
36253;SDS011;22291;52.250;21.228;2023-11-19T01:15:09;66.33;;;31.85;;
36253;SDS011;22291;52.250;21.228;2023-11-19T01:17:36;67.03;;;31.52;;
36253;SDS011;22291;52.250;21.228;2023-11-19T01:20:04;64.67;;;31.82;;
36253;SDS011;22291;52.250;21.228;2023-11-19T01:22:32;70.85;;;32.85;;
36253;SDS011;22291;52.250;21.228;2023-11-19T01:24:59;67.42;;;31.40;;
36253;SDS011;22291;52.250;21.228;2023-11-19T01:27:26;68.95;;;33.08;;
36253;SDS011;22291;52.250;21.228;2023-11-19T01:29:52;63.80;;;33.38;;
36253;SDS011;22291;52.250;21.228;2023-11-19T01:32:19;64.03;;;32.20;;
36253;SDS011;22291;52.250;21.228;2023-11-19T01:34:45;70.10;;;33.38;;
36253;SDS011;22291;52.250;21.228;2023-11-19T01:37:12;69.58;;;33.05;;
36253;SDS011;22291;52.250;21.228;2023-11-19T01:39:40;69.05;;;33.48;;
36253;SDS011;22291;52.250;21.228;2023-11-19T01:42:11;71.02;;;34.25;;
36253;SDS011;22291;52.250;21.228;2023-11-19T01:44:41;71.95;;;34.00;;
36253;SDS011;22291;52.250;21.228;2023-11-19T01:47:08;71.57;;;33.63;;
36253;SDS011;22291;52.250;21.228;2023-11-19T01:49:36;69.90;;;33.00;;
36253;SDS011;22291;52.250;21.228;2023-11-19T01:52:03;86.15;;;34.95;;
36253;SDS011;22291;52.250;21.228;2023-11-19T01:54:31;77.53;;;31.48;;
36253;SDS011;22291;52.250;21.228;2023-11-19T01:56:59;71.02;;;33.05;;
36253;SDS011;22291;52.250;21.228;2023-11-19T01:59:26;71.37;;;33.33;;
36253;SDS011;22291;52.250;21.228;2023-11-19T02:01:54;68.17;;;32.70;;
36253;SDS011;22291;52.250;21.228;2023-11-19T02:04:22;69.75;;;32.10;;
36253;SDS011;22291;52.250;21.228;2023-11-19T02:06:50;67.12;;;31.50;;
36253;SDS011;22291;52.250;21.228;2023-11-19T02:09:20;71.47;;;33.80;;
36253;SDS011;22291;52.250;21.228;2023-11-19T02:11:47;65.00;;;32.20;;
36253;SDS011;22291;52.250;21.228;2023-11-19T02:14:16;66.60;;;31.17;;
36253;SDS011;22291;52.250;21.228;2023-11-19T02:16:45;65.70;;;32.33;;
36253;SDS011;22291;52.250;21.228;2023-11-19T02:19:11;75.90;;;32.15;;
36253;SDS011;22291;52.250;21.228;2023-11-19T02:21:39;63.98;;;30.30;;
36253;SDS011;22291;52.250;21.228;2023-11-19T02:24:08;66.57;;;30.65;;
36253;SDS011;22291;52.250;21.228;2023-11-19T02:26:52;66.75;;;31.42;;
36253;SDS011;22291;52.250;21.228;2023-11-19T02:29:26;64.72;;;30.52;;
36253;SDS011;22291;52.250;21.228;2023-11-19T02:31:52;68.35;;;31.42;;
36253;SDS011;22291;52.250;21.228;2023-11-19T02:34:20;66.82;;;31.15;;
36253;SDS011;22291;52.250;21.228;2023-11-19T02:36:47;68.25;;;30.05;;
36253;SDS011;22291;52.250;21.228;2023-11-19T02:39:15;70.05;;;31.33;;
36253;SDS011;22291;52.250;21.228;2023-11-19T02:41:43;70.62;;;30.35;;
36253;SDS011;22291;52.250;21.228;2023-11-19T02:44:10;67.90;;;29.72;;
36253;SDS011;22291;52.250;21.228;2023-11-19T02:46:37;68.78;;;30.95;;
36253;SDS011;22291;52.250;21.228;2023-11-19T02:49:04;68.50;;;32.58;;
36253;SDS011;22291;52.250;21.228;2023-11-19T02:51:32;72.22;;;30.75;;
36253;SDS011;22291;52.250;21.228;2023-11-19T02:54:01;73.50;;;31.68;;
36253;SDS011;22291;52.250;21.228;2023-11-19T02:56:29;67.60;;;31.73;;
36253;SDS011;22291;52.250;21.228;2023-11-19T02:58:57;71.33;;;32.50;;
36253;SDS011;22291;52.250;21.228;2023-11-19T03:01:24;68.70;;;29.82;;
36253;SDS011;22291;52.250;21.228;2023-11-19T03:03:57;71.72;;;31.17;;
36253;SDS011;22291;52.250;21.228;2023-11-19T03:06:27;71.20;;;31.23;;
36253;SDS011;22291;52.250;21.228;2023-11-19T03:08:54;73.75;;;31.40;;
36253;SDS011;22291;52.250;21.228;2023-11-19T03:11:22;79.80;;;33.78;;
36253;SDS011;22291;52.250;21.228;2023-11-19T03:13:50;75.80;;;32.58;;
36253;SDS011;22291;52.250;21.228;2023-11-19T03:16:17;72.35;;;32.25;;
36253;SDS011;22291;52.250;21.228;2023-11-19T03:18:44;71.60;;;32.90;;
36253;SDS011;22291;52.250;21.228;2023-11-19T03:21:11;72.75;;;30.90;;
36253;SDS011;22291;52.250;21.228;2023-11-19T03:23:38;70.42;;;30.75;;
36253;SDS011;22291;52.250;21.228;2023-11-19T03:26:06;71.35;;;31.75;;
36253;SDS011;22291;52.250;21.228;2023-11-19T03:28:34;73.05;;;32.30;;
36253;SDS011;22291;52.250;21.228;2023-11-19T03:31:01;80.03;;;33.40;;
36253;SDS011;22291;52.250;21.228;2023-11-19T03:33:36;73.30;;;32.13;;
36253;SDS011;22291;52.250;21.228;2023-11-19T03:36:03;68.60;;;31.90;;
36253;SDS011;22291;52.250;21.228;2023-11-19T03:38:33;71.30;;;29.75;;
36253;SDS011;22291;52.250;21.228;2023-11-19T03:40:59;78.60;;;31.52;;
36253;SDS011;22291;52.250;21.228;2023-11-19T03:43:26;70.35;;;31.07;;
36253;SDS011;22291;52.250;21.228;2023-11-19T03:45:53;72.97;;;31.45;;
36253;SDS011;22291;52.250;21.228;2023-11-19T03:48:20;71.62;;;30.72;;
36253;SDS011;22291;52.250;21.228;2023-11-19T03:50:47;72.78;;;31.20;;
36253;SDS011;22291;52.250;21.228;2023-11-19T03:53:15;70.40;;;30.35;;
36253;SDS011;22291;52.250;21.228;2023-11-19T03:55:42;70.20;;;30.45;;
36253;SDS011;22291;52.250;21.228;2023-11-19T03:58:09;73.15;;;30.88;;
36253;SDS011;22291;52.250;21.228;2023-11-19T04:00:38;78.73;;;32.37;;
36253;SDS011;22291;52.250;21.228;2023-11-19T04:03:04;69.00;;;30.17;;
36253;SDS011;22291;52.250;21.228;2023-11-19T04:05:31;81.92;;;31.65;;
36253;SDS011;22291;52.250;21.228;2023-11-19T04:07:58;79.70;;;30.32;;
36253;SDS011;22291;52.250;21.228;2023-11-19T04:10:26;82.17;;;32.15;;
36253;SDS011;22291;52.250;21.228;2023-11-19T04:12:53;76.85;;;31.68;;
36253;SDS011;22291;52.250;21.228;2023-11-19T04:15:19;73.78;;;30.77;;
36253;SDS011;22291;52.250;21.228;2023-11-19T04:17:46;68.33;;;30.32;;
36253;SDS011;22291;52.250;21.228;2023-11-19T04:20:13;76.75;;;33.02;;
36253;SDS011;22291;52.250;21.228;2023-11-19T04:22:41;82.72;;;31.87;;
36253;SDS011;22291;52.250;21.228;2023-11-19T04:25:08;78.02;;;29.67;;
36253;SDS011;22291;52.250;21.228;2023-11-19T04:27:35;79.97;;;31.82;;
36253;SDS011;22291;52.250;21.228;2023-11-19T04:30:01;75.92;;;30.40;;
36253;SDS011;22291;52.250;21.228;2023-11-19T04:34:57;80.72;;;30.57;;
36253;SDS011;22291;52.250;21.228;2023-11-19T04:37:25;85.35;;;30.37;;
36253;SDS011;22291;52.250;21.228;2023-11-19T04:39:51;74.42;;;29.35;;
36253;SDS011;22291;52.250;21.228;2023-11-19T04:42:18;91.95;;;30.45;;
36253;SDS011;22291;52.250;21.228;2023-11-19T04:44:45;79.85;;;30.90;;
36253;SDS011;22291;52.250;21.228;2023-11-19T04:47:12;85.00;;;31.12;;
36253;SDS011;22291;52.250;21.228;2023-11-19T04:49:40;68.78;;;29.20;;
36253;SDS011;22291;52.250;21.228;2023-11-19T04:52:10;84.35;;;30.37;;
36253;SDS011;22291;52.250;21.228;2023-11-19T04:54:40;96.60;;;32.53;;
36253;SDS011;22291;52.250;21.228;2023-11-19T04:57:11;79.85;;;32.17;;
36253;SDS011;22291;52.250;21.228;2023-11-19T04:59:38;90.32;;;31.80;;
36253;SDS011;22291;52.250;21.228;2023-11-19T05:02:05;110.52;;;33.13;;
36253;SDS011;22291;52.250;21.228;2023-11-19T05:04:31;72.87;;;30.55;;
36253;SDS011;22291;52.250;21.228;2023-11-19T05:06:58;86.50;;;31.87;;
36253;SDS011;22291;52.250;21.228;2023-11-19T05:09:25;82.20;;;30.90;;
36253;SDS011;22291;52.250;21.228;2023-11-19T05:11:52;93.47;;;31.52;;
36253;SDS011;22291;52.250;21.228;2023-11-19T05:14:19;100.22;;;32.48;;
36253;SDS011;22291;52.250;21.228;2023-11-19T05:16:47;91.92;;;32.50;;
36253;SDS011;22291;52.250;21.228;2023-11-19T05:19:15;103.60;;;35.78;;
36253;SDS011;22291;52.250;21.228;2023-11-19T05:21:42;106.83;;;32.65;;
36253;SDS011;22291;52.250;21.228;2023-11-19T05:24:10;105.52;;;32.58;;
36253;SDS011;22291;52.250;21.228;2023-11-19T05:26:40;92.53;;;30.37;;
36253;SDS011;22291;52.250;21.228;2023-11-19T05:29:07;97.12;;;30.65;;
36253;SDS011;22291;52.250;21.228;2023-11-19T05:31:36;97.67;;;31.80;;
36253;SDS011;22291;52.250;21.228;2023-11-19T05:34:06;90.67;;;32.00;;
36253;SDS011;22291;52.250;21.228;2023-11-19T05:36:33;89.95;;;31.40;;
36253;SDS011;22291;52.250;21.228;2023-11-19T05:39:00;108.00;;;32.90;;
36253;SDS011;22291;52.250;21.228;2023-11-19T05:41:26;83.80;;;31.80;;
36253;SDS011;22291;52.250;21.228;2023-11-19T05:43:53;80.28;;;31.10;;
36253;SDS011;22291;52.250;21.228;2023-11-19T05:46:19;99.00;;;32.50;;
36253;SDS011;22291;52.250;21.228;2023-11-19T05:48:47;111.32;;;33.02;;
36253;SDS011;22291;52.250;21.228;2023-11-19T05:51:14;77.65;;;29.90;;
36253;SDS011;22291;52.250;21.228;2023-11-19T05:53:42;98.67;;;31.97;;
36253;SDS011;22291;52.250;21.228;2023-11-19T05:56:11;90.77;;;33.48;;
36253;SDS011;22291;52.250;21.228;2023-11-19T05:58:37;90.65;;;30.43;;
36253;SDS011;22291;52.250;21.228;2023-11-19T06:01:06;78.72;;;28.40;;
36253;SDS011;22291;52.250;21.228;2023-11-19T06:03:33;90.25;;;30.80;;
36253;SDS011;22291;52.250;21.228;2023-11-19T06:06:01;88.30;;;30.40;;
36253;SDS011;22291;52.250;21.228;2023-11-19T06:08:28;79.80;;;30.48;;
36253;SDS011;22291;52.250;21.228;2023-11-19T06:10:56;89.90;;;28.92;;
36253;SDS011;22291;52.250;21.228;2023-11-19T06:13:25;107.52;;;31.93;;
36253;SDS011;22291;52.250;21.228;2023-11-19T06:15:51;85.07;;;30.08;;
36253;SDS011;22291;52.250;21.228;2023-11-19T06:18:18;84.37;;;30.60;;
36253;SDS011;22291;52.250;21.228;2023-11-19T06:20:46;87.67;;;33.02;;
36253;SDS011;22291;52.250;21.228;2023-11-19T06:23:15;80.62;;;30.75;;
36253;SDS011;22291;52.250;21.228;2023-11-19T06:25:43;87.67;;;32.17;;
36253;SDS011;22291;52.250;21.228;2023-11-19T06:28:10;90.35;;;32.73;;
36253;SDS011;22291;52.250;21.228;2023-11-19T06:30:36;83.90;;;29.98;;
36253;SDS011;22291;52.250;21.228;2023-11-19T06:33:04;83.97;;;30.85;;
36253;SDS011;22291;52.250;21.228;2023-11-19T06:35:31;83.12;;;30.30;;
36253;SDS011;22291;52.250;21.228;2023-11-19T06:38:00;82.95;;;30.02;;
36253;SDS011;22291;52.250;21.228;2023-11-19T06:42:58;77.17;;;29.37;;
36253;SDS011;22291;52.250;21.228;2023-11-19T06:45:26;81.15;;;29.00;;
36253;SDS011;22291;52.250;21.228;2023-11-19T06:47:53;75.22;;;28.47;;
36253;SDS011;22291;52.250;21.228;2023-11-19T06:50:21;75.83;;;27.73;;
36253;SDS011;22291;52.250;21.228;2023-11-19T06:52:49;70.05;;;28.45;;
36253;SDS011;22291;52.250;21.228;2023-11-19T06:55:16;70.40;;;26.57;;
36253;SDS011;22291;52.250;21.228;2023-11-19T06:57:43;69.30;;;27.95;;
36253;SDS011;22291;52.250;21.228;2023-11-19T07:00:11;65.87;;;26.97;;
36253;SDS011;22291;52.250;21.228;2023-11-19T07:02:39;62.30;;;25.05;;
36253;SDS011;22291;52.250;21.228;2023-11-19T07:05:07;67.25;;;26.30;;
36253;SDS011;22291;52.250;21.228;2023-11-19T07:07:34;57.83;;;25.52;;
36253;SDS011;22291;52.250;21.228;2023-11-19T07:10:01;60.00;;;24.75;;
36253;SDS011;22291;52.250;21.228;2023-11-19T07:12:31;57.67;;;24.15;;
36253;SDS011;22291;52.250;21.228;2023-11-19T07:14:58;55.50;;;23.92;;
36253;SDS011;22291;52.250;21.228;2023-11-19T07:17:26;46.50;;;21.55;;
36253;SDS011;22291;52.250;21.228;2023-11-19T07:19:52;51.45;;;22.85;;
36253;SDS011;22291;52.250;21.228;2023-11-19T07:22:20;49.23;;;21.42;;
36253;SDS011;22291;52.250;21.228;2023-11-19T07:24:46;44.70;;;22.40;;
36253;SDS011;22291;52.250;21.228;2023-11-19T07:27:14;40.80;;;19.65;;
36253;SDS011;22291;52.250;21.228;2023-11-19T07:29:43;40.52;;;20.62;;
36253;SDS011;22291;52.250;21.228;2023-11-19T07:32:11;42.83;;;19.37;;
36253;SDS011;22291;52.250;21.228;2023-11-19T07:34:39;37.85;;;19.37;;
36253;SDS011;22291;52.250;21.228;2023-11-19T07:37:06;34.10;;;18.32;;
36253;SDS011;22291;52.250;21.228;2023-11-19T07:39:34;34.88;;;19.27;;
36253;SDS011;22291;52.250;21.228;2023-11-19T07:42:01;37.73;;;18.37;;
36253;SDS011;22291;52.250;21.228;2023-11-19T07:44:29;38.40;;;18.32;;
36253;SDS011;22291;52.250;21.228;2023-11-19T07:46:56;36.68;;;18.48;;
36253;SDS011;22291;52.250;21.228;2023-11-19T07:49:23;35.13;;;19.07;;
36253;SDS011;22291;52.250;21.228;2023-11-19T07:51:50;34.55;;;18.70;;
36253;SDS011;22291;52.250;21.228;2023-11-19T07:54:18;34.98;;;17.65;;
36253;SDS011;22291;52.250;21.228;2023-11-19T07:56:47;36.58;;;18.20;;
36253;SDS011;22291;52.250;21.228;2023-11-19T07:59:15;32.23;;;17.42;;
36253;SDS011;22291;52.250;21.228;2023-11-19T08:01:42;35.88;;;18.20;;
36253;SDS011;22291;52.250;21.228;2023-11-19T08:04:09;33.98;;;18.00;;
36253;SDS011;22291;52.250;21.228;2023-11-19T08:06:37;33.75;;;17.95;;
36253;SDS011;22291;52.250;21.228;2023-11-19T08:09:04;35.78;;;17.60;;
36253;SDS011;22291;52.250;21.228;2023-11-19T08:11:32;30.27;;;15.90;;
36253;SDS011;22291;52.250;21.228;2023-11-19T08:14:00;31.25;;;16.62;;
36253;SDS011;22291;52.250;21.228;2023-11-19T08:16:27;32.28;;;16.93;;
36253;SDS011;22291;52.250;21.228;2023-11-19T08:18:53;34.63;;;17.73;;
36253;SDS011;22291;52.250;21.228;2023-11-19T08:21:20;32.25;;;18.20;;
36253;SDS011;22291;52.250;21.228;2023-11-19T08:23:48;30.32;;;17.00;;
36253;SDS011;22291;52.250;21.228;2023-11-19T08:26:15;31.30;;;16.80;;
36253;SDS011;22291;52.250;21.228;2023-11-19T08:28:43;29.12;;;17.20;;
36253;SDS011;22291;52.250;21.228;2023-11-19T08:31:11;33.35;;;17.57;;
36253;SDS011;22291;52.250;21.228;2023-11-19T08:33:37;33.58;;;17.40;;
36253;SDS011;22291;52.250;21.228;2023-11-19T08:36:05;29.75;;;16.10;;
36253;SDS011;22291;52.250;21.228;2023-11-19T08:38:33;31.70;;;17.17;;
36253;SDS011;22291;52.250;21.228;2023-11-19T08:41:00;28.95;;;16.82;;
36253;SDS011;22291;52.250;21.228;2023-11-19T08:43:27;31.02;;;16.70;;
36253;SDS011;22291;52.250;21.228;2023-11-19T08:45:54;31.45;;;15.83;;
36253;SDS011;22291;52.250;21.228;2023-11-19T08:48:20;25.97;;;14.95;;
36253;SDS011;22291;52.250;21.228;2023-11-19T08:50:47;28.15;;;16.12;;
36253;SDS011;22291;52.250;21.228;2023-11-19T08:53:14;30.88;;;16.50;;
36253;SDS011;22291;52.250;21.228;2023-11-19T08:55:40;25.17;;;15.35;;
36253;SDS011;22291;52.250;21.228;2023-11-19T08:58:07;24.65;;;14.55;;
36253;SDS011;22291;52.250;21.228;2023-11-19T09:00:34;25.12;;;15.58;;
36253;SDS011;22291;52.250;21.228;2023-11-19T09:03:01;25.05;;;14.83;;
36253;SDS011;22291;52.250;21.228;2023-11-19T09:05:29;24.43;;;15.38;;
36253;SDS011;22291;52.250;21.228;2023-11-19T09:07:55;27.32;;;15.32;;
36253;SDS011;22291;52.250;21.228;2023-11-19T09:10:22;28.62;;;16.27;;
36253;SDS011;22291;52.250;21.228;2023-11-19T09:12:49;25.40;;;15.45;;
36253;SDS011;22291;52.250;21.228;2023-11-19T09:15:15;23.55;;;14.33;;
36253;SDS011;22291;52.250;21.228;2023-11-19T09:17:42;23.90;;;14.50;;
36253;SDS011;22291;52.250;21.228;2023-11-19T09:20:09;23.80;;;14.50;;
36253;SDS011;22291;52.250;21.228;2023-11-19T09:22:39;23.02;;;13.98;;
36253;SDS011;22291;52.250;21.228;2023-11-19T09:25:07;27.25;;;14.47;;
36253;SDS011;22291;52.250;21.228;2023-11-19T09:27:35;24.92;;;14.95;;
36253;SDS011;22291;52.250;21.228;2023-11-19T09:30:01;27.27;;;16.60;;
36253;SDS011;22291;52.250;21.228;2023-11-19T09:32:30;28.85;;;15.65;;
36253;SDS011;22291;52.250;21.228;2023-11-19T09:34:57;25.02;;;14.40;;
36253;SDS011;22291;52.250;21.228;2023-11-19T09:37:23;26.97;;;13.90;;
36253;SDS011;22291;52.250;21.228;2023-11-19T09:39:50;23.65;;;13.83;;
36253;SDS011;22291;52.250;21.228;2023-11-19T09:42:19;26.97;;;14.60;;
36253;SDS011;22291;52.250;21.228;2023-11-19T09:44:47;29.10;;;15.35;;
36253;SDS011;22291;52.250;21.228;2023-11-19T09:47:16;23.85;;;14.55;;
36253;SDS011;22291;52.250;21.228;2023-11-19T09:49:46;29.10;;;16.00;;
36253;SDS011;22291;52.250;21.228;2023-11-19T09:52:16;32.65;;;16.82;;
36253;SDS011;22291;52.250;21.228;2023-11-19T09:54:42;29.72;;;16.00;;
36253;SDS011;22291;52.250;21.228;2023-11-19T09:57:09;28.55;;;15.45;;
36253;SDS011;22291;52.250;21.228;2023-11-19T09:59:39;29.25;;;16.20;;
36253;SDS011;22291;52.250;21.228;2023-11-19T10:02:07;27.82;;;16.00;;
36253;SDS011;22291;52.250;21.228;2023-11-19T10:04:35;30.08;;;15.63;;
36253;SDS011;22291;52.250;21.228;2023-11-19T10:07:04;32.95;;;17.07;;
36253;SDS011;22291;52.250;21.228;2023-11-19T10:09:31;28.85;;;16.27;;
36253;SDS011;22291;52.250;21.228;2023-11-19T10:11:58;27.98;;;16.05;;
36253;SDS011;22291;52.250;21.228;2023-11-19T10:14:25;26.48;;;14.70;;
36253;SDS011;22291;52.250;21.228;2023-11-19T10:16:54;27.77;;;15.63;;
36253;SDS011;22291;52.250;21.228;2023-11-19T10:19:22;26.77;;;15.83;;
36253;SDS011;22291;52.250;21.228;2023-11-19T10:21:49;30.08;;;16.87;;
36253;SDS011;22291;52.250;21.228;2023-11-19T10:24:16;25.30;;;15.08;;
36253;SDS011;22291;52.250;21.228;2023-11-19T10:38:13;29.02;;;15.98;;
36253;SDS011;22291;52.250;21.228;2023-11-19T10:40:41;30.52;;;17.20;;
36253;SDS011;22291;52.250;21.228;2023-11-19T10:43:08;31.20;;;16.50;;
36253;SDS011;22291;52.250;21.228;2023-11-19T10:45:40;27.50;;;14.87;;
36253;SDS011;22291;52.250;21.228;2023-11-19T10:48:05;29.60;;;15.50;;
36253;SDS011;22291;52.250;21.228;2023-11-19T10:50:37;28.65;;;16.90;;
36253;SDS011;22291;52.250;21.228;2023-11-19T10:53:02;30.02;;;16.23;;
36253;SDS011;22291;52.250;21.228;2023-11-19T10:55:34;24.80;;;14.23;;
36253;SDS011;22291;52.250;21.228;2023-11-19T10:58:07;26.62;;;15.13;;
36253;SDS011;22291;52.250;21.228;2023-11-19T11:00:41;28.85;;;16.70;;
36253;SDS011;22291;52.250;21.228;2023-11-19T11:05:48;29.25;;;16.97;;
36253;SDS011;22291;52.250;21.228;2023-11-19T11:08:17;28.07;;;15.30;;
36253;SDS011;22291;52.250;21.228;2023-11-19T11:11:03;27.77;;;16.00;;
36253;SDS011;22291;52.250;21.228;2023-11-19T11:13:24;27.87;;;15.72;;
36253;SDS011;22291;52.250;21.228;2023-11-19T11:15:55;32.75;;;16.67;;
36253;SDS011;22291;52.250;21.228;2023-11-19T11:18:27;30.72;;;17.62;;
36253;SDS011;22291;52.250;21.228;2023-11-19T11:20:55;34.40;;;18.30;;
36253;SDS011;22291;52.250;21.228;2023-11-19T11:26:35;33.63;;;17.45;;
36253;SDS011;22291;52.250;21.228;2023-11-19T11:29:28;31.70;;;17.30;;
36253;SDS011;22291;52.250;21.228;2023-11-19T11:37:45;32.50;;;18.40;;
36253;SDS011;22291;52.250;21.228;2023-11-19T11:40:18;33.20;;;18.00;;
36253;SDS011;22291;52.250;21.228;2023-11-19T11:42:45;32.75;;;17.85;;
36253;SDS011;22291;52.250;21.228;2023-11-19T11:45:13;36.65;;;16.70;;
36253;SDS011;22291;52.250;21.228;2023-11-19T11:50:17;30.80;;;16.45;;
36253;SDS011;22291;52.250;21.228;2023-11-19T11:55:35;28.65;;;15.85;;
36253;SDS011;22291;52.250;21.228;2023-11-19T11:58:05;28.50;;;15.35;;
36253;SDS011;22291;52.250;21.228;2023-11-19T12:00:33;33.02;;;16.62;;
36253;SDS011;22291;52.250;21.228;2023-11-19T12:03:06;28.92;;;15.30;;
36253;SDS011;22291;52.250;21.228;2023-11-19T12:05:41;30.77;;;16.90;;
36253;SDS011;22291;52.250;21.228;2023-11-19T12:08:10;27.07;;;16.20;;
36253;SDS011;22291;52.250;21.228;2023-11-19T12:10:46;31.93;;;17.45;;
36253;SDS011;22291;52.250;21.228;2023-11-19T12:13:16;28.95;;;16.23;;
36253;SDS011;22291;52.250;21.228;2023-11-19T12:18:29;38.13;;;19.85;;
36253;SDS011;22291;52.250;21.228;2023-11-19T12:20:57;34.13;;;18.23;;
36253;SDS011;22291;52.250;21.228;2023-11-19T12:23:30;32.73;;;17.12;;
36253;SDS011;22291;52.250;21.228;2023-11-19T12:25:58;32.93;;;16.82;;
36253;SDS011;22291;52.250;21.228;2023-11-19T12:28:25;29.65;;;16.62;;
36253;SDS011;22291;52.250;21.228;2023-11-19T12:33:25;28.98;;;15.55;;
36253;SDS011;22291;52.250;21.228;2023-11-19T12:35:51;31.55;;;16.80;;
36253;SDS011;22291;52.250;21.228;2023-11-19T12:38:18;30.72;;;18.05;;
36253;SDS011;22291;52.250;21.228;2023-11-19T12:41:06;30.62;;;16.25;;
36253;SDS011;22291;52.250;21.228;2023-11-19T12:43:36;34.43;;;17.77;;
36253;SDS011;22291;52.250;21.228;2023-11-19T12:46:23;27.83;;;15.90;;
36253;SDS011;22291;52.250;21.228;2023-11-19T12:48:50;31.23;;;17.37;;
36253;SDS011;22291;52.250;21.228;2023-11-19T12:51:19;30.80;;;16.62;;
36253;SDS011;22291;52.250;21.228;2023-11-19T12:53:49;34.55;;;17.65;;
36253;SDS011;22291;52.250;21.228;2023-11-19T12:56:23;36.30;;;18.45;;
36253;SDS011;22291;52.250;21.228;2023-11-19T12:58:50;36.08;;;19.42;;
36253;SDS011;22291;52.250;21.228;2023-11-19T13:01:17;36.75;;;19.05;;
36253;SDS011;22291;52.250;21.228;2023-11-19T13:03:46;38.28;;;19.17;;
36253;SDS011;22291;52.250;21.228;2023-11-19T13:06:18;36.90;;;18.60;;
36253;SDS011;22291;52.250;21.228;2023-11-19T13:08:47;37.33;;;19.40;;
36253;SDS011;22291;52.250;21.228;2023-11-19T13:11:31;38.78;;;19.25;;
36253;SDS011;22291;52.250;21.228;2023-11-19T13:14:02;34.00;;;18.48;;
36253;SDS011;22291;52.250;21.228;2023-11-19T13:16:30;35.50;;;20.17;;
36253;SDS011;22291;52.250;21.228;2023-11-19T13:18:57;32.83;;;18.55;;
36253;SDS011;22291;52.250;21.228;2023-11-19T13:21:25;35.10;;;19.17;;
36253;SDS011;22291;52.250;21.228;2023-11-19T13:23:52;42.10;;;20.80;;
36253;SDS011;22291;52.250;21.228;2023-11-19T13:26:18;37.42;;;19.48;;
36253;SDS011;22291;52.250;21.228;2023-11-19T13:28:45;36.13;;;19.37;;
36253;SDS011;22291;52.250;21.228;2023-11-19T13:31:12;39.58;;;19.87;;
36253;SDS011;22291;52.250;21.228;2023-11-19T13:33:40;41.85;;;20.55;;
36253;SDS011;22291;52.250;21.228;2023-11-19T13:36:08;35.43;;;18.67;;
36253;SDS011;22291;52.250;21.228;2023-11-19T13:38:35;34.92;;;19.37;;
36253;SDS011;22291;52.250;21.228;2023-11-19T13:41:02;39.70;;;19.40;;
36253;SDS011;22291;52.250;21.228;2023-11-19T13:43:30;35.75;;;18.77;;
36253;SDS011;22291;52.250;21.228;2023-11-19T13:45:57;37.08;;;19.73;;
36253;SDS011;22291;52.250;21.228;2023-11-19T13:48:24;40.43;;;21.02;;
36253;SDS011;22291;52.250;21.228;2023-11-19T13:50:52;42.40;;;21.65;;
36253;SDS011;22291;52.250;21.228;2023-11-19T13:53:19;36.95;;;19.10;;
36253;SDS011;22291;52.250;21.228;2023-11-19T13:55:45;39.33;;;20.08;;
36253;SDS011;22291;52.250;21.228;2023-11-19T13:58:13;41.65;;;22.25;;
36253;SDS011;22291;52.250;21.228;2023-11-19T14:00:39;38.17;;;20.12;;
36253;SDS011;22291;52.250;21.228;2023-11-19T14:03:07;37.67;;;20.85;;
36253;SDS011;22291;52.250;21.228;2023-11-19T14:05:36;38.02;;;20.92;;
36253;SDS011;22291;52.250;21.228;2023-11-19T14:08:04;39.30;;;21.35;;
36253;SDS011;22291;52.250;21.228;2023-11-19T14:10:36;46.77;;;23.62;;
36253;SDS011;22291;52.250;21.228;2023-11-19T14:13:07;43.83;;;24.60;;
36253;SDS011;22291;52.250;21.228;2023-11-19T14:15:34;46.92;;;23.52;;
36253;SDS011;22291;52.250;21.228;2023-11-19T14:18:01;41.48;;;22.50;;
36253;SDS011;22291;52.250;21.228;2023-11-19T14:20:28;45.05;;;21.90;;
36253;SDS011;22291;52.250;21.228;2023-11-19T14:22:55;44.40;;;23.27;;
36253;SDS011;22291;52.250;21.228;2023-11-19T14:25:21;42.25;;;22.25;;
36253;SDS011;22291;52.250;21.228;2023-11-19T14:27:49;42.88;;;22.17;;
36253;SDS011;22291;52.250;21.228;2023-11-19T14:30:16;43.75;;;22.22;;
36253;SDS011;22291;52.250;21.228;2023-11-19T14:32:42;46.75;;;23.10;;
36253;SDS011;22291;52.250;21.228;2023-11-19T14:35:11;40.52;;;23.12;;
36253;SDS011;22291;52.250;21.228;2023-11-19T14:37:38;41.25;;;21.75;;
36253;SDS011;22291;52.250;21.228;2023-11-19T14:40:05;42.85;;;21.77;;
36253;SDS011;22291;52.250;21.228;2023-11-19T14:42:35;38.60;;;21.50;;
36253;SDS011;22291;52.250;21.228;2023-11-19T14:45:03;44.03;;;21.65;;
36253;SDS011;22291;52.250;21.228;2023-11-19T14:47:31;45.20;;;22.75;;
36253;SDS011;22291;52.250;21.228;2023-11-19T14:49:57;45.75;;;22.52;;
36253;SDS011;22291;52.250;21.228;2023-11-19T14:52:24;44.38;;;23.62;;